< Typhoon 201005 2010 Season Typhoon 201007 >
Typhoon 201006 (LIONROCK)
General InformationTrack Information on Google MapsDetailed Wind InformationAccess Analytics MapList of All Images || NewsDisaster Info.WeblogTrackbackTyphoon FrontTwiphoonTyphoon Now!Typhoon ImaginationResourceGoogle EarthGE AnimationAtom FeedGeoJSON
Detalied Best Track (Time Zone = UTC)
Year Month Day Hour Lat. Long. Pressure (hPa) Wind (kt) Class Image Chart
2010 8 27 18 16.5 118.0 1004 0 2 Image Chart
2010 8 28 00 17.3 117.7 1004 0 2 Image Chart
2010 8 28 06 18.5 116.9 1002 0 2 Image Chart
2010 8 28 12 18.9 116.7 1002 0 2 Image Chart
2010 8 28 18 19.2 116.5 1000 35 3 Image Chart
2010 8 29 00 19.7 116.2 1000 35 3 Image Chart
2010 8 29 06 20.2 116.1 998 35 3 Image Chart
2010 8 29 12 20.4 116.3 996 40 3 Image Chart
2010 8 29 18 20.6 116.5 996 40 3 Image Chart
2010 8 30 00 20.7 116.6 990 45 3 Image Chart
2010 8 30 06 20.8 116.7 985 50 4 Image Chart
2010 8 30 12 20.7 117.0 985 50 4 Image Chart
2010 8 30 18 20.6 117.2 985 50 4 Image Chart
2010 8 31 00 20.4 117.5 985 50 4 Image Chart
2010 8 31 06 20.4 118.2 985 50 4 Image Chart
2010 8 31 12 20.8 119.0 985 50 4 Image Chart
2010 8 31 18 21.5 119.4 985 50 4 Image Chart
2010 9 1 00 22.3 119.4 990 45 3 Image Chart
2010 9 1 06 22.8 119.1 990 45 3 Image Chart
2010 9 1 12 23.2 118.9 990 45 3 Image Chart
2010 9 1 18 23.5 118.3 990 45 3 Image Chart
2010 9 2 00 23.9 117.3 996 35 3 Image Chart
2010 9 2 06 24.3 116.1 998 0 2 Image Chart
2010 9 2 12 24.0 115.0 1002 0 2 Image Chart
2010 9 2 18 23.9 114.3 1002 0 2 Image Chart
2010 9 3 00 23.9 113.7 1002 0 2 Image Chart
2010 9 3 06 23.7 113.0 1002 0 2 Image Chart
2010 9 3 12 23.5 112.6 1002 0 2 Image Chart
2010 9 3 18 23.4 112.1 1002 0 2 Image Chart
2010 9 4 00 23.0 111.6 1004 0 2 Image Chart
2010 9 4 06 22.5 111.2 1002 0 2 Image Chart
Japan Meteorological Agency Best Track Data | Correction Date : 2010-10-14
< Typhoon 201005 2010 Season Typhoon 201007 >

Help